createdAt,value
2022-12-29T00:01:16.291Z,7.18
2022-12-29T00:03:44.916Z,7.20
2022-12-29T00:06:13.242Z,7.21
2022-12-29T00:08:41.759Z,7.24
2022-12-29T00:11:11.565Z,7.21
2022-12-29T00:13:58.097Z,7.17
2022-12-29T00:16:28.531Z,7.17
2022-12-29T00:18:56.895Z,7.18
2022-12-29T00:21:43.672Z,7.21
2022-12-29T00:24:32.708Z,7.21
2022-12-29T00:27:29.603Z,7.21
2022-12-29T00:30:15.641Z,7.26
2022-12-29T00:33:02.897Z,7.21
2022-12-29T00:35:33.911Z,7.24
2022-12-29T00:38:22.878Z,7.26
2022-12-29T00:41:08.608Z,7.31
2022-12-29T00:43:54.139Z,7.32
2022-12-29T00:46:22.861Z,7.30
2022-12-29T00:49:09.755Z,7.32
2022-12-29T00:51:38.373Z,7.37
2022-12-29T00:54:06.525Z,7.42
2022-12-29T00:56:35.345Z,7.48
2022-12-29T00:59:04.170Z,7.50
2022-12-29T01:01:32.767Z,7.51
2022-12-29T01:04:04.556Z,7.55
2022-12-29T01:06:33.781Z,7.60
2022-12-29T01:09:19.310Z,7.66
2022-12-29T01:11:48.068Z,7.68
2022-12-29T01:14:16.786Z,7.66
2022-12-29T01:16:46.851Z,7.70
2022-12-29T01:19:17.168Z,7.72
2022-12-29T01:21:46.866Z,7.77
2022-12-29T01:24:15.557Z,7.79
2022-12-29T01:26:43.774Z,7.83
2022-12-29T01:29:12.135Z,7.87
2022-12-29T01:31:40.490Z,7.88
2022-12-29T01:34:09.300Z,7.85
2022-12-29T01:36:38.818Z,7.89
2022-12-29T01:39:06.989Z,7.92
2022-12-29T01:41:35.647Z,7.94
2022-12-29T01:44:04.074Z,7.96
2022-12-29T01:46:36.043Z,7.92
2022-12-29T01:49:12.762Z,7.95
2022-12-29T01:51:46.083Z,7.96
2022-12-29T01:54:19.174Z,7.94
2022-12-29T01:56:48.200Z,7.98
2022-12-29T01:59:22.533Z,7.97
2022-12-29T02:01:51.289Z,8.01
2022-12-29T02:04:20.436Z,8.00
2022-12-29T02:06:54.865Z,7.97
2022-12-29T02:09:24.624Z,8.02
2022-12-29T02:11:54.156Z,8.05
2022-12-29T02:14:22.428Z,8.01
2022-12-29T02:17:08.690Z,8.00
2022-12-29T02:20:16.361Z,7.99
2022-12-29T02:22:58.037Z,8.02
2022-12-29T02:25:46.961Z,8.00
2022-12-29T02:29:03.801Z,7.97
2022-12-29T02:31:44.105Z,8.01
2022-12-29T02:34:24.592Z,8.00
2022-12-29T02:37:02.756Z,8.05
2022-12-29T02:39:40.396Z,7.98
2022-12-29T02:42:16.190Z,8.01
2022-12-29T02:44:57.088Z,7.99
2022-12-29T02:47:36.033Z,7.91
2022-12-29T02:50:09.030Z,8.04
2022-12-29T02:52:41.419Z,8.00
2022-12-29T02:55:08.831Z,8.04
2022-12-29T02:57:37.406Z,8.04
2022-12-29T03:00:09.685Z,8.02
2022-12-29T03:03:18.896Z,7.84
2022-12-29T03:06:09.677Z,7.95
2022-12-29T03:08:48.414Z,7.93
2022-12-29T03:11:31.097Z,7.97
2022-12-29T03:14:21.785Z,7.95
2022-12-29T03:16:54.584Z,7.94
2022-12-29T03:19:27.435Z,7.93
2022-12-29T03:22:17.399Z,7.95
2022-12-29T03:24:50.014Z,8.00
2022-12-29T03:27:22.352Z,7.98
2022-12-29T03:29:55.435Z,7.95
2022-12-29T03:32:25.949Z,8.00
2022-12-29T03:34:56.928Z,8.02
2022-12-29T03:37:28.541Z,8.04
2022-12-29T03:39:57.111Z,8.02
2022-12-29T03:42:29.914Z,8.02
2022-12-29T03:44:59.057Z,8.01
2022-12-29T03:47:27.855Z,8.02
2022-12-29T03:49:57.343Z,7.98
2022-12-29T03:52:25.781Z,8.03
2022-12-29T03:54:53.995Z,8.01
2022-12-29T03:57:22.274Z,7.98
2022-12-29T03:59:50.601Z,8.00
2022-12-29T04:02:18.906Z,7.98
2022-12-29T04:04:48.850Z,8.03
2022-12-29T04:07:18.716Z,7.96
2022-12-29T04:09:46.966Z,7.99
2022-12-29T04:12:15.637Z,7.97
2022-12-29T04:14:43.952Z,7.95
2022-12-29T04:17:12.129Z,7.99
2022-12-29T04:19:40.267Z,7.90
2022-12-29T04:22:07.452Z,8.04
2022-12-29T04:24:37.020Z,8.03
2022-12-29T04:27:05.549Z,7.92
2022-12-29T04:29:34.037Z,8.03
2022-12-29T04:32:02.412Z,8.01
2022-12-29T04:34:30.642Z,8.03
2022-12-29T04:36:59.028Z,8.09
2022-12-29T04:39:27.309Z,8.08
2022-12-29T04:41:56.871Z,8.03
2022-12-29T04:44:25.354Z,8.06
2022-12-29T04:46:53.585Z,8.02
2022-12-29T04:49:21.775Z,8.09
2022-12-29T04:51:50.160Z,7.99
2022-12-29T04:54:18.479Z,8.14
2022-12-29T04:56:46.886Z,8.10
2022-12-29T04:59:16.959Z,8.11
2022-12-29T05:01:45.747Z,8.04
2022-12-29T05:04:14.694Z,8.10
2022-12-29T05:06:43.119Z,8.02
2022-12-29T05:09:11.486Z,8.05
2022-12-29T05:11:39.686Z,8.07
2022-12-29T05:14:08.070Z,8.11
2022-12-29T05:16:37.616Z,8.13
2022-12-29T05:19:05.877Z,8.10
2022-12-29T05:21:34.218Z,8.02
2022-12-29T05:24:02.379Z,8.05
2022-12-29T05:26:30.429Z,8.04
2022-12-29T05:28:58.758Z,8.12
2022-12-29T05:31:27.066Z,8.16
2022-12-29T05:33:56.667Z,8.16
2022-12-29T05:36:25.088Z,8.19
2022-12-29T05:38:53.324Z,8.22
2022-12-29T05:41:21.576Z,8.24
2022-12-29T05:43:49.910Z,8.21
2022-12-29T05:46:20.929Z,8.24
2022-12-29T05:48:49.164Z,8.29
2022-12-29T05:51:18.995Z,8.27
2022-12-29T05:53:47.130Z,8.31
2022-12-29T05:56:17.968Z,8.34
2022-12-29T05:58:46.773Z,8.35
2022-12-29T06:01:14.937Z,8.35
2022-12-29T06:03:47.887Z,8.40
2022-12-29T06:06:18.360Z,8.38
2022-12-29T06:08:47.399Z,8.36
2022-12-29T06:11:15.756Z,8.39
2022-12-29T06:13:44.084Z,8.45
2022-12-29T06:16:12.340Z,8.49
2022-12-29T06:18:40.575Z,8.49
2022-12-29T06:21:09.171Z,8.50
2022-12-29T06:23:38.733Z,8.56
2022-12-29T06:26:07.025Z,8.58
2022-12-29T06:28:35.860Z,8.53
2022-12-29T06:31:04.401Z,8.60
2022-12-29T06:33:32.821Z,8.57
2022-12-29T06:36:01.057Z,8.59
2022-12-29T06:38:29.670Z,8.58
2022-12-29T06:40:59.241Z,8.52
2022-12-29T06:43:27.464Z,8.54
2022-12-29T06:45:55.641Z,8.51
2022-12-29T06:48:23.960Z,8.52
2022-12-29T06:50:52.308Z,8.45
2022-12-29T06:53:20.470Z,8.51
2022-12-29T06:55:48.624Z,8.51
2022-12-29T06:58:18.423Z,8.48
2022-12-29T07:00:46.862Z,8.46
2022-12-29T07:03:15.101Z,8.40
2022-12-29T07:05:43.731Z,8.43
2022-12-29T07:08:11.991Z,8.44
2022-12-29T07:10:40.138Z,8.37
2022-12-29T07:13:09.439Z,8.36
2022-12-29T07:15:40.294Z,8.33
2022-12-29T07:18:08.494Z,8.35
2022-12-29T07:20:36.835Z,8.33
2022-12-29T07:23:05.016Z,8.32
2022-12-29T07:25:33.326Z,8.30
2022-12-29T07:28:04.274Z,8.31
2022-12-29T07:30:32.609Z,8.24
2022-12-29T07:33:02.461Z,8.29
2022-12-29T07:35:30.750Z,8.27
2022-12-29T07:37:58.978Z,8.28
2022-12-29T07:40:27.838Z,8.20
2022-12-29T07:42:55.996Z,8.18
2022-12-29T07:45:24.076Z,8.18
2022-12-29T07:47:52.714Z,8.17
2022-12-29T07:50:25.085Z,8.15
2022-12-29T07:52:53.425Z,8.18
2022-12-29T07:55:21.675Z,8.21
2022-12-29T07:57:49.920Z,8.22
2022-12-29T08:00:18.723Z,8.18
2022-12-29T08:02:47.139Z,8.18
2022-12-29T08:05:16.688Z,8.13
2022-12-29T08:07:47.747Z,8.13
2022-12-29T08:10:17.141Z,8.24
2022-12-29T08:12:45.901Z,8.19
2022-12-29T08:15:14.552Z,8.21
2022-12-29T08:17:42.676Z,8.21
2022-12-29T08:20:11.743Z,8.20
2022-12-29T08:22:39.877Z,8.21
2022-12-29T08:25:10.523Z,8.14
2022-12-29T08:27:39.032Z,8.13
2022-12-29T08:30:11.114Z,8.14
2022-12-29T08:32:41.063Z,8.19
2022-12-29T08:35:09.965Z,8.17
2022-12-29T08:37:38.396Z,8.18
2022-12-29T08:40:07.914Z,8.20
2022-12-29T08:42:37.507Z,8.20
2022-12-29T08:45:06.291Z,8.19
2022-12-29T08:47:34.519Z,8.23
2022-12-29T08:50:02.755Z,8.25
2022-12-29T08:52:30.956Z,8.24
2022-12-29T08:54:59.923Z,8.28
2022-12-29T08:57:28.231Z,8.25
2022-12-29T08:59:57.955Z,8.28
2022-12-29T09:02:26.291Z,8.28
2022-12-29T09:04:55.135Z,8.26
2022-12-29T09:07:23.414Z,8.34
2022-12-29T09:09:52.897Z,8.31
2022-12-29T09:12:21.564Z,8.31
2022-12-29T09:14:49.807Z,8.37
2022-12-29T09:17:37.062Z,8.36
2022-12-29T09:20:06.003Z,8.35
2022-12-29T09:22:34.162Z,8.32
2022-12-29T09:25:02.264Z,8.36
2022-12-29T09:27:31.139Z,8.41
2022-12-29T09:29:59.468Z,8.41
2022-12-29T09:32:33.558Z,8.42
2022-12-29T09:35:05.365Z,8.41
2022-12-29T09:37:33.640Z,8.43
2022-12-29T09:40:01.905Z,8.43
2022-12-29T09:42:37.321Z,8.33
2022-12-29T09:45:14.568Z,8.46
2022-12-29T09:47:46.247Z,8.37
2022-12-29T09:50:25.582Z,8.51
2022-12-29T09:53:01.405Z,8.48
2022-12-29T09:55:38.075Z,8.45
2022-12-29T09:58:13.015Z,8.46
2022-12-29T10:00:55.173Z,8.42
2022-12-29T10:03:30.292Z,8.39
2022-12-29T10:06:06.891Z,8.34
2022-12-29T10:08:42.235Z,8.38
2022-12-29T10:11:23.161Z,8.36
2022-12-29T10:14:13.820Z,8.33
2022-12-29T10:16:53.508Z,8.25
2022-12-29T10:19:47.350Z,8.31
2022-12-29T10:22:30.656Z,8.22
2022-12-29T10:24:59.192Z,8.23
2022-12-29T10:27:27.514Z,8.23
2022-12-29T10:29:58.172Z,8.24
2022-12-29T10:32:34.299Z,8.20
2022-12-29T10:35:13.646Z,8.23
2022-12-29T10:37:47.713Z,8.22
2022-12-29T10:40:22.760Z,8.24
2022-12-29T10:42:55.570Z,8.26
2022-12-29T10:45:26.853Z,8.25
2022-12-29T10:48:02.485Z,8.33
2022-12-29T10:50:32.153Z,8.38
2022-12-29T10:53:03.597Z,8.43
2022-12-29T10:55:36.819Z,8.37
2022-12-29T10:58:08.570Z,8.40
2022-12-29T11:00:36.777Z,8.40
2022-12-29T11:03:40.621Z,8.36
2022-12-29T11:06:14.994Z,8.39
2022-12-29T11:08:52.450Z,8.39
2022-12-29T11:11:27.749Z,8.43
2022-12-29T11:14:01.657Z,8.45
2022-12-29T11:16:32.946Z,8.46
2022-12-29T11:19:01.344Z,8.48
2022-12-29T11:21:35.065Z,8.45
2022-12-29T11:24:05.276Z,8.52
2022-12-29T11:26:35.394Z,8.54
2022-12-29T11:29:23.737Z,8.55
2022-12-29T11:31:55.088Z,8.61
2022-12-29T11:34:26.378Z,8.65
2022-12-29T11:37:02.514Z,8.65
2022-12-29T11:39:35.471Z,8.62
2022-12-29T11:42:04.963Z,8.63
2022-12-29T11:44:40.176Z,8.61
2022-12-29T11:47:13.793Z,8.61
2022-12-29T11:49:42.217Z,8.61
2022-12-29T11:52:12.288Z,8.62
2022-12-29T11:54:41.419Z,8.70
2022-12-29T11:57:15.752Z,8.69
2022-12-29T11:59:45.953Z,8.59
2022-12-29T12:02:27.229Z,8.64
2022-12-29T12:05:03.881Z,8.59
2022-12-29T12:07:41.562Z,8.56
2022-12-29T12:10:19.870Z,8.38
2022-12-29T12:12:56.110Z,8.54
2022-12-29T12:15:28.560Z,8.59
2022-12-29T12:18:02.641Z,8.59
2022-12-29T12:20:41.046Z,8.52
2022-12-29T12:23:22.791Z,8.49
2022-12-29T12:26:00.271Z,8.46
2022-12-29T12:28:39.030Z,8.56
2022-12-29T12:31:18.068Z,8.57
2022-12-29T12:33:53.037Z,8.51
2022-12-29T12:37:04.260Z,8.57
2022-12-29T12:39:44.573Z,8.56
2022-12-29T12:42:26.761Z,8.53
2022-12-29T12:45:24.298Z,8.56
2022-12-29T12:48:04.530Z,8.55
2022-12-29T12:50:55.130Z,8.49
2022-12-29T12:53:43.478Z,8.55
2022-12-29T12:56:31.245Z,8.54
2022-12-29T12:59:09.968Z,8.52
2022-12-29T13:01:49.193Z,8.67
2022-12-29T13:04:48.924Z,8.59
2022-12-29T13:07:27.792Z,8.57
2022-12-29T13:10:16.257Z,8.51
2022-12-29T13:12:52.310Z,8.52
2022-12-29T13:15:36.633Z,8.53
2022-12-29T13:18:14.195Z,8.56
2022-12-29T13:20:49.948Z,8.48
2022-12-29T13:23:26.885Z,8.51
2022-12-29T13:26:05.209Z,8.55
2022-12-29T13:28:40.938Z,8.60
2022-12-29T13:31:18.136Z,8.61
2022-12-29T13:33:55.878Z,8.60
2022-12-29T13:36:29.267Z,8.58
2022-12-29T13:39:06.337Z,8.56
2022-12-29T13:41:40.024Z,8.61
2022-12-29T13:44:12.893Z,8.59
2022-12-29T13:46:44.959Z,8.58
2022-12-29T13:49:17.878Z,8.59
2022-12-29T13:51:51.874Z,8.54
2022-12-29T13:54:30.188Z,8.49
2022-12-29T13:57:08.090Z,8.49
2022-12-29T13:59:46.775Z,8.39
2022-12-29T14:02:27.246Z,8.33
2022-12-29T14:05:01.448Z,8.35
2022-12-29T14:07:30.621Z,8.32
2022-12-29T14:10:00.056Z,8.29
2022-12-29T14:12:34.093Z,8.29
2022-12-29T14:15:22.230Z,8.24
2022-12-29T14:18:07.008Z,8.28
2022-12-29T14:20:36.412Z,8.27
2022-12-29T14:23:29.325Z,8.24
2022-12-29T14:26:00.014Z,8.22
2022-12-29T14:28:29.897Z,8.26
2022-12-29T14:31:00.892Z,8.24
2022-12-29T14:33:31.877Z,8.17
2022-12-29T14:36:21.255Z,8.15
2022-12-29T14:38:50.893Z,8.21
2022-12-29T14:41:32.817Z,8.09
2022-12-29T14:44:17.063Z,8.08
2022-12-29T14:46:57.694Z,8.10
2022-12-29T14:49:27.811Z,8.15
2022-12-29T14:52:06.446Z,8.16
2022-12-29T14:54:52.393Z,8.09
2022-12-29T14:57:34.889Z,8.09
2022-12-29T15:00:20.423Z,8.11
2022-12-29T15:03:06.717Z,8.08
2022-12-29T15:05:39.848Z,8.16
2022-12-29T15:08:09.450Z,8.19
2022-12-29T15:10:43.723Z,8.15
2022-12-29T15:13:20.386Z,8.17
2022-12-29T15:15:48.809Z,8.21
2022-12-29T15:18:25.911Z,8.14
2022-12-29T15:20:57.496Z,8.18
2022-12-29T15:23:26.472Z,8.20
2022-12-29T15:25:57.882Z,8.13
2022-12-29T15:28:27.861Z,8.16
2022-12-29T15:30:58.101Z,8.10
2022-12-29T15:33:30.039Z,8.02
2022-12-29T15:35:59.760Z,8.05
2022-12-29T15:38:34.512Z,8.02
2022-12-29T15:41:09.058Z,8.01
2022-12-29T15:43:53.781Z,7.98
2022-12-29T15:46:22.362Z,8.07
2022-12-29T15:48:52.125Z,8.08
2022-12-29T15:51:23.713Z,8.01
2022-12-29T15:53:54.040Z,8.10
2022-12-29T15:56:22.502Z,8.15
2022-12-29T15:58:53.116Z,8.14
2022-12-29T16:01:25.918Z,8.18
2022-12-29T16:03:56.653Z,8.14
2022-12-29T16:06:33.647Z,8.12
2022-12-29T16:09:04.737Z,8.18
2022-12-29T16:11:37.297Z,8.17
2022-12-29T16:14:11.764Z,8.16
2022-12-29T16:16:42.881Z,8.18
2022-12-29T16:19:26.495Z,8.14
2022-12-29T16:21:54.917Z,8.18
2022-12-29T16:24:26.074Z,8.14
2022-12-29T16:27:08.990Z,8.14
2022-12-29T16:29:37.918Z,8.20
2022-12-29T16:32:26.328Z,8.19
2022-12-29T16:35:11.983Z,8.28
2022-12-29T16:37:40.680Z,8.35
2022-12-29T16:40:31.479Z,8.27
2022-12-29T16:43:01.850Z,8.30
2022-12-29T16:46:08.805Z,8.21
2022-12-29T16:48:40.419Z,8.29
2022-12-29T16:51:18.965Z,8.31
2022-12-29T16:53:52.327Z,8.35
2022-12-29T16:56:23.404Z,8.35
2022-12-29T16:58:55.408Z,8.30
2022-12-29T17:01:24.041Z,8.40
2022-12-29T17:03:55.771Z,8.42
2022-12-29T17:06:25.857Z,8.37
2022-12-29T17:08:55.277Z,8.44
2022-12-29T17:11:44.208Z,8.35
2022-12-29T17:14:41.727Z,8.34
2022-12-29T17:17:16.939Z,8.25
2022-12-29T17:19:49.816Z,8.31
2022-12-29T17:22:25.273Z,8.32
2022-12-29T17:24:54.123Z,8.39
2022-12-29T17:27:33.471Z,8.39
2022-12-29T17:30:05.767Z,8.32
2022-12-29T17:32:34.815Z,8.35
2022-12-29T17:35:04.209Z,8.41
2022-12-29T17:37:37.323Z,8.34
2022-12-29T17:40:08.788Z,8.36
2022-12-29T17:42:43.732Z,8.33
2022-12-29T17:45:17.031Z,8.34
2022-12-29T17:47:45.746Z,8.30
2022-12-29T17:50:15.878Z,8.36
2022-12-29T17:52:49.509Z,8.35
2022-12-29T17:55:19.933Z,8.30
2022-12-29T17:57:48.768Z,8.34
2022-12-29T18:00:18.821Z,8.34
2022-12-29T18:02:47.433Z,8.31
2022-12-29T18:05:21.152Z,8.27
2022-12-29T18:07:52.485Z,8.29
2022-12-29T18:10:21.427Z,8.26
2022-12-29T18:12:51.199Z,8.34
2022-12-29T18:15:23.171Z,8.31
2022-12-29T18:17:56.813Z,8.27
2022-12-29T18:20:25.532Z,8.22
2022-12-29T18:22:55.109Z,8.18
2022-12-29T18:25:26.565Z,8.16
2022-12-29T18:27:55.243Z,8.09
2022-12-29T18:30:25.980Z,8.16
2022-12-29T18:32:54.679Z,8.14
2022-12-29T18:35:30.480Z,8.11
2022-12-29T18:38:00.062Z,8.17
2022-12-29T18:40:29.684Z,8.21
2022-12-29T18:42:57.862Z,8.22
2022-12-29T18:45:26.736Z,8.13
2022-12-29T18:47:55.571Z,8.10
2022-12-29T18:50:23.844Z,8.12
2022-12-29T18:52:52.185Z,8.11
2022-12-29T18:55:24.312Z,8.04
2022-12-29T18:57:52.791Z,8.08
2022-12-29T19:00:22.943Z,8.11
2022-12-29T19:02:52.875Z,8.09
2022-12-29T19:05:24.015Z,8.04
2022-12-29T19:07:52.655Z,8.07
2022-12-29T19:10:23.981Z,8.05
2022-12-29T19:12:52.980Z,8.05
2022-12-29T19:15:24.961Z,8.04
2022-12-29T19:18:32.384Z,8.10
2022-12-29T19:20:45.336Z,8.05
2022-12-29T19:23:16.778Z,8.06
2022-12-29T19:25:47.700Z,8.03
2022-12-29T19:28:20.288Z,8.05
2022-12-29T19:30:52.456Z,8.12
2022-12-29T19:33:22.049Z,8.12
2022-12-29T19:35:50.884Z,8.13
2022-12-29T19:38:20.869Z,8.16
2022-12-29T19:40:53.013Z,8.16
2022-12-29T19:43:21.302Z,8.15
2022-12-29T19:45:51.445Z,8.15
2022-12-29T19:48:21.717Z,8.09
2022-12-29T19:50:50.105Z,8.18
2022-12-29T19:53:18.790Z,8.17
2022-12-29T19:55:48.416Z,8.13
2022-12-29T19:58:19.183Z,8.22
2022-12-29T20:00:47.431Z,8.19
2022-12-29T20:03:15.918Z,8.22
2022-12-29T20:05:50.999Z,8.17
2022-12-29T20:08:19.568Z,8.21
2022-12-29T20:10:57.453Z,8.21
2022-12-29T20:13:27.436Z,8.21
2022-12-29T20:16:00.375Z,8.22
2022-12-29T20:18:31.725Z,8.17
2022-12-29T20:21:04.153Z,8.24
2022-12-29T20:23:32.990Z,8.30
2022-12-29T20:26:02.276Z,8.22
2022-12-29T20:28:32.329Z,8.20
2022-12-29T20:31:04.110Z,8.18
2022-12-29T20:33:33.542Z,8.21
2022-12-29T20:36:07.654Z,8.20
2022-12-29T20:38:36.586Z,8.21
2022-12-29T20:41:05.620Z,8.19
2022-12-29T20:43:35.358Z,8.16
2022-12-29T20:46:03.797Z,8.17
2022-12-29T20:48:32.207Z,8.16
2022-12-29T20:51:00.655Z,8.10
2022-12-29T20:53:29.265Z,8.11
2022-12-29T20:56:02.695Z,8.09
2022-12-29T20:58:31.710Z,8.09
2022-12-29T21:01:05.318Z,8.10
2022-12-29T21:03:34.340Z,8.09
2022-12-29T21:06:02.741Z,8.12
2022-12-29T21:08:31.256Z,8.14
2022-12-29T21:11:00.128Z,8.09
2022-12-29T21:13:28.647Z,8.08
2022-12-29T21:15:58.328Z,8.08
2022-12-29T21:18:28.266Z,8.09
2022-12-29T21:20:57.875Z,8.11
2022-12-29T21:23:26.628Z,8.16
2022-12-29T21:25:55.325Z,8.18
2022-12-29T21:28:25.310Z,8.17
2022-12-29T21:30:54.171Z,8.21
2022-12-29T21:33:23.179Z,8.24
2022-12-29T21:35:52.959Z,8.22
2022-12-29T21:38:21.511Z,8.18
2022-12-29T21:40:49.682Z,8.07
2022-12-29T21:43:18.270Z,8.11
2022-12-29T21:45:50.032Z,8.10
2022-12-29T21:48:25.151Z,8.15
2022-12-29T21:51:14.286Z,8.13
2022-12-29T21:53:44.186Z,8.17
2022-12-29T21:56:14.230Z,8.13
2022-12-29T21:59:01.928Z,8.15
2022-12-29T22:01:49.636Z,8.10
2022-12-29T22:04:37.298Z,8.13
2022-12-29T22:07:26.358Z,8.12
2022-12-29T22:10:12.127Z,8.15
2022-12-29T22:12:58.123Z,8.16
2022-12-29T22:15:26.867Z,8.15
2022-12-29T22:17:56.158Z,8.17
2022-12-29T22:20:26.857Z,8.13
2022-12-29T22:22:57.059Z,8.11
2022-12-29T22:25:25.468Z,8.10
2022-12-29T22:27:58.991Z,8.04
2022-12-29T22:30:28.616Z,7.96
2022-12-29T22:32:59.093Z,8.01
2022-12-29T22:35:27.212Z,8.01
2022-12-29T22:37:56.938Z,8.00
2022-12-29T22:40:25.246Z,8.00
2022-12-29T22:42:53.502Z,7.93
2022-12-29T22:45:22.015Z,7.88
2022-12-29T22:47:50.123Z,7.89
2022-12-29T22:50:18.496Z,7.88
2022-12-29T22:52:46.948Z,7.84
2022-12-29T22:55:16.813Z,7.83
2022-12-29T22:57:45.000Z,7.84
2022-12-29T23:00:13.618Z,7.87
2022-12-29T23:02:41.944Z,7.89
2022-12-29T23:05:11.554Z,7.77
2022-12-29T23:07:39.841Z,7.85
2022-12-29T23:10:08.810Z,7.86
2022-12-29T23:12:38.507Z,7.77
2022-12-29T23:15:07.838Z,7.78
2022-12-29T23:17:36.720Z,7.77
2022-12-29T23:20:06.123Z,7.77
2022-12-29T23:22:34.552Z,7.74
2022-12-29T23:25:02.712Z,7.78
2022-12-29T23:27:31.006Z,7.81
2022-12-29T23:30:02.919Z,7.81
2022-12-29T23:32:31.057Z,7.78
2022-12-29T23:34:59.225Z,7.80
2022-12-29T23:37:27.349Z,7.77
2022-12-29T23:39:55.521Z,7.75
2022-12-29T23:42:23.741Z,7.73
2022-12-29T23:44:52.087Z,7.69
2022-12-29T23:47:21.661Z,7.65
2022-12-29T23:49:49.894Z,7.60
2022-12-29T23:52:18.297Z,7.58
2022-12-29T23:54:46.607Z,7.61
2022-12-29T23:57:14.757Z,7.59
2022-12-29T23:59:43.041Z,7.58
